Sweeney, South Dakota
Current Conditions -  °F | °C
As of 2:26 PM on Sunday 25 Jan 2015 (Local Time) from KPIR Reporting Station
Scattered Clouds Scattered Clouds  
Wind Chill: 37°   Ceiling: Unl
Heat Index: 42°   Visibility: 10mi
Dew Point: 29°   Wind: 9mph
Humidity: 60%   Direction: 300°WNW
Pressure: 30"   Gusts: NA
Location:  43.909°N, 100.128°W
Report Text: KPIR 252026Z AUTO 30008KT 10SM SCT026 06/M02 A3000 RMK AO2 T00561017
Loading
Personal Weather Stations






























Interactive Weather Map New forecast layout! Learn more

10-Day Weather Forecast

Advertisements
Track Severe Weather on mobile